Time;durP1;ratioP1;P1;durP2;ratioP2;P2;SDS_P1;SDS_P2;PMS_P1;PMS_P2;Temp;Humidity;BMP_temperature;BMP_pressure;BME280_temperature;BME280_humidity;BME280_pressure;Samples;Min_cycle;Max_cycle;Signal;HPM_P1;HPM_P2
2021/04/17 00:01:59;;;;;;;3.65;2.90;;;;;;;10.10;46.64;99783.28;5053752;28;20033;-74
2021/04/17 00:04:30;;;;;;;2.95;2.40;;;;;;;10.18;45.92;99779.47;5054713;28;20099;-73
2021/04/17 00:06:57;;;;;;;3.67;2.60;;;;;;;10.05;46.89;99769.69;5055323;28;20115;-74
2021/04/17 00:09:25;;;;;;;3.78;2.90;;;;;;;10.09;46.89;99776.13;5053598;28;20036;-74
2021/04/17 00:11:53;;;;;;;8.85;7.90;;;;;;;10.19;46.80;99781.09;5055163;28;20026;-74
2021/04/17 00:14:39;;;;;;;4.32;2.70;;;;;;;10.07;46.87;99778.50;5037034;28;20036;-74
2021/04/17 00:17:06;;;;;;;2.08;1.83;;;;;;;10.00;47.32;99773.56;5054778;28;20044;-74
2021/04/17 00:19:32;;;;;;;2.42;2.22;;;;;;;10.07;47.19;99764.59;5054227;28;20526;-74
2021/04/17 00:21:58;;;;;;;2.72;2.50;;;;;;;10.14;46.74;99770.28;5053362;28;20025;-74
2021/04/17 00:24:23;;;;;;;3.30;3.00;;;;;;;10.08;46.77;99769.78;5053042;28;20059;-74
2021/04/17 00:26:49;;;;;;;3.72;2.90;;;;;;;10.02;47.37;99765.69;5053681;28;20028;-73
2021/04/17 00:29:15;;;;;;;3.38;2.70;;;;;;;10.05;47.16;99759.38;5053511;28;20386;-74
2021/04/17 00:31:41;;;;;;;2.15;2.05;;;;;;;10.12;47.72;99761.47;5053571;28;20036;-74
2021/04/17 00:34:07;;;;;;;2.20;1.67;;;;;;;10.06;47.27;99754.63;5053901;28;20475;-74
2021/04/17 00:36:34;;;;;;;2.90;1.85;;;;;;;10.07;47.45;99745.13;5055157;28;20055;-74
2021/04/17 00:38:59;;;;;;;3.45;1.50;;;;;;;10.11;47.71;99751.53;5055385;28;20036;-74
2021/04/17 00:41:26;;;;;;;1.55;1.45;;;;;;;10.10;47.44;99749.94;5057706;28;20028;-74
2021/04/17 00:43:52;;;;;;;3.15;2.40;;;;;;;10.08;48.16;99735.63;5053797;28;20384;-74
2021/04/17 00:46:19;;;;;;;4.70;1.73;;;;;;;10.10;47.38;99733.25;5052912;28;20029;-74
2021/04/17 00:48:45;;;;;;;1.90;1.80;;;;;;;10.15;47.99;99733.75;5054150;28;20021;-74
2021/04/17 00:51:11;;;;;;;2.00;1.90;;;;;;;10.06;48.00;99730.41;5053164;28;20029;-74
2021/04/17 00:53:38;;;;;;;2.80;1.85;;;;;;;10.09;48.22;99718.56;5052792;28;20060;-73
2021/04/17 00:56:08;;;;;;;2.85;1.90;;;;;;;9.99;47.55;99699.72;5053090;28;20383;-74
2021/04/17 00:58:35;;;;;;;1.80;1.42;;;;;;;10.08;48.15;99724.50;5052999;28;20052;-73
2021/04/17 01:01:02;;;;;;;3.15;1.50;;;;;;;10.19;47.69;99722.69;5053042;28;20033;-74
2021/04/17 01:03:42;;;;;;;1.95;1.50;;;;;;;10.09;47.94;99720.53;5052798;28;20482;-73
2021/04/17 01:06:21;;;;;;;1.42;1.33;;;;;;;10.15;47.89;99710.72;5052225;28;20104;-74
2021/04/17 01:08:55;;;;;;;2.58;1.45;;;;;;;10.12;48.47;99720.59;5052624;28;20037;-74
2021/04/17 01:11:42;;;;;;;1.95;1.35;;;;;;;10.07;48.39;99723.69;5052398;28;20036;-74
2021/04/17 01:14:08;;;;;;;1.77;1.15;;;;;;;10.03;48.57;99713.69;5053497;28;20029;-74
2021/04/17 01:16:35;;;;;;;1.25;1.10;;;;;;;10.04;49.14;99715.28;5052556;28;20028;-74
2021/04/17 01:19:12;;;;;;;2.17;1.45;;;;;;;10.01;48.24;99710.47;5055635;28;20406;-74
2021/04/17 01:21:39;;;;;;;1.30;1.20;;;;;;;10.02;47.66;99704.53;5055442;28;20502;-74
2021/04/17 01:24:15;;;;;;;1.55;1.23;;;;;;;10.09;47.63;99709.41;5052460;28;20584;-73
2021/04/17 01:26:41;;;;;;;1.98;1.10;;;;;;;10.12;47.66;99703.09;5052871;28;20059;-74
2021/04/17 01:29:07;;;;;;;1.20;1.10;;;;;;;10.08;46.94;99702.25;5052735;28;20120;-74
2021/04/17 01:31:36;;;;;;;1.45;1.30;;;;;;;10.15;46.65;99714.28;5052372;28;20055;-74
2021/04/17 01:34:04;;;;;;;1.60;1.50;;;;;;;10.11;46.62;99707.84;5053672;28;20489;-73
2021/04/17 01:36:31;;;;;;;1.13;1.00;;;;;;;10.07;46.29;99700.66;5052599;28;20024;-74
2021/04/17 01:39:04;;;;;;;0.95;0.90;;;;;;;10.18;44.81;99705.22;5052306;28;20056;-73
2021/04/17 01:41:34;;;;;;;0.77;0.77;;;;;;;10.15;44.51;99714.28;5052875;28;20482;-73
2021/04/17 01:44:03;;;;;;;1.00;0.90;;;;;;;10.14;45.08;99709.91;5052235;28;20028;-73
2021/04/17 01:46:33;;;;;;;1.40;1.30;;;;;;;10.07;45.52;99706.22;5052667;28;20459;-74
2021/04/17 01:49:02;;;;;;;1.30;1.20;;;;;;;10.03;45.39;99699.78;5052217;28;20031;-74
2021/04/17 01:51:28;;;;;;;2.53;1.55;;;;;;;10.10;44.95;99709.03;5052711;28;20037;-74
2021/04/17 01:53:56;;;;;;;1.35;1.10;;;;;;;10.08;45.13;99703.06;5053213;28;20100;-74
2021/04/17 01:56:23;;;;;;;1.63;1.25;;;;;;;9.95;45.31;99699.66;5035675;28;20033;-74
2021/04/17 01:58:50;;;;;;;2.63;1.20;;;;;;;10.10;44.30;99705.47;5052129;28;20033;-74
2021/04/17 02:01:20;;;;;;;1.20;1.10;;;;;;;10.11;43.52;99693.16;5052619;28;20124;-74
2021/04/17 02:03:47;;;;;;;1.15;0.77;;;;;;;9.96;43.99;99703.25;5052062;28;20068;-74
2021/04/17 02:06:13;;;;;;;1.75;1.05;;;;;;;10.02;43.73;99698.19;5052548;28;20025;-73
2021/04/17 02:08:39;;;;;;;0.90;0.90;;;;;;;10.13;43.68;99701.94;5052285;28;20033;-73
2021/04/17 02:11:05;;;;;;;2.33;0.85;;;;;;;10.08;43.38;99700.28;5052057;28;20244;-73
2021/04/17 02:13:35;;;;;;;1.63;0.88;;;;;;;10.15;42.56;99694.03;5052360;28;20057;-73
2021/04/17 02:16:07;;;;;;;2.10;1.90;;;;;;;10.11;43.38;99691.19;5057399;28;20036;-74
2021/04/17 02:19:03;;;;;;;4.20;2.45;;;;;;;10.16;42.66;99688.09;5055993;28;20033;-73
2021/04/17 02:21:34;;;;;;;3.08;1.75;;;;;;;10.17;42.51;99680.56;5056264;28;20048;-74
2021/04/17 02:24:00;;;;;;;2.13;1.52;;;;;;;10.18;42.59;99682.97;5055672;28;20049;-74
2021/04/17 02:26:27;;;;;;;1.02;0.95;;;;;;;10.16;42.68;99678.94;5055822;28;20494;-74
2021/04/17 02:28:53;;;;;;;3.60;1.15;;;;;;;10.11;42.81;99677.28;5055303;28;20036;-74
2021/04/17 02:31:19;;;;;;;0.90;0.90;;;;;;;10.14;42.56;99667.41;5055449;28;20079;-73
2021/04/17 02:33:44;;;;;;;1.83;1.40;;;;;;;10.14;43.24;99673.78;5055401;28;20037;-74
2021/04/17 02:36:10;;;;;;;1.25;0.93;;;;;;;10.02;43.62;99673.97;5055720;28;20048;-74
2021/04/17 02:38:35;;;;;;;2.25;1.20;;;;;;;10.16;43.76;99670.59;5055880;28;20521;-74
2021/04/17 02:41:01;;;;;;;4.43;3.22;;;;;;;9.85;44.45;99646.66;5055798;28;20033;-74
2021/04/17 02:43:27;;;;;;;28.58;25.45;;;;;;;9.97;44.88;99663.97;5055758;28;20425;-74
2021/04/17 02:45:52;;;;;;;3.13;2.85;;;;;;;10.08;43.94;99666.13;5056669;28;20060;-74
2021/04/17 02:48:18;;;;;;;2.53;1.85;;;;;;;10.16;43.19;99670.59;5055143;28;20037;-73
2021/04/17 02:50:43;;;;;;;1.95;1.08;;;;;;;10.05;44.55;99666.84;5055139;28;20112;-73
2021/04/17 02:53:09;;;;;;;1.50;1.30;;;;;;;10.05;44.18;99669.63;5055612;28;20132;-74
2021/04/17 02:55:35;;;;;;;1.33;1.30;;;;;;;10.01;44.69;99654.88;5055091;28;20365;-74
2021/04/17 02:58:00;;;;;;;2.30;2.10;;;;;;;10.02;44.11;99654.53;5054991;28;20129;-74
2021/04/17 03:00:26;;;;;;;3.72;3.10;;;;;;;10.07;45.20;99648.66;5054949;28;20029;-74
2021/04/17 03:02:52;;;;;;;6.13;2.75;;;;;;;10.02;44.88;99648.16;5054971;28;20535;-74
2021/04/17 03:05:19;;;;;;;2.22;1.90;;;;;;;10.02;45.28;99648.97;5055640;28;20021;-74
2021/04/17 03:07:45;;;;;;;2.33;2.13;;;;;;;9.99;45.28;99655.25;5057474;28;20033;-74
2021/04/17 03:10:11;;;;;;;3.00;2.00;;;;;;;10.01;45.56;99652.88;5056034;28;20035;-74
2021/04/17 03:12:37;;;;;;;3.45;3.17;;;;;;;9.97;45.24;99649.28;5055045;28;20029;-74
2021/04/17 03:15:04;;;;;;;2.40;2.03;;;;;;;9.95;45.67;99644.06;5054684;28;20051;-73
2021/04/17 03:17:30;;;;;;;2.08;1.70;;;;;;;10.01;46.33;99650.09;5056403;28;20025;-74
2021/04/17 03:19:56;;;;;;;4.22;1.75;;;;;;;9.91;46.52;99643.22;5055112;28;20121;-74
2021/04/17 03:22:21;;;;;;;1.10;1.10;;;;;;;10.06;44.98;99652.56;5055546;28;20029;-74
2021/04/17 03:24:47;;;;;;;1.58;1.38;;;;;;;9.95;45.73;99644.06;5053789;28;20049;-74
2021/04/17 03:27:12;;;;;;;6.25;5.00;;;;;;;10.00;45.82;99642.94;5056721;28;20067;-74
2021/04/17 03:29:38;;;;;;;12.18;6.22;;;;;;;10.00;46.32;99645.72;5058252;28;20029;-74
2021/04/17 03:32:04;;;;;;;2.63;1.73;;;;;;;9.95;45.98;99640.47;5054715;28;20360;-74
2021/04/17 03:34:30;;;;;;;5.80;3.97;;;;;;;9.98;46.19;99643.34;5054796;28;20029;-74
2021/04/17 03:36:56;;;;;;;3.40;1.45;;;;;;;10.17;44.94;99647.19;5054562;28;20379;-74
2021/04/17 03:39:21;;;;;;;2.95;1.45;;;;;;;10.08;45.49;99641.91;5055039;28;20503;-73
2021/04/17 03:41:50;;;;;;;5.95;2.08;;;;;;;10.13;45.70;99644.38;5054457;28;20116;-74
2021/04/17 03:44:16;;;;;;;2.45;1.50;;;;;;;10.28;44.84;99645.44;5054681;28;20360;-74
2021/04/17 03:46:41;;;;;;;1.63;1.52;;;;;;;10.17;45.35;99645.25;5054311;28;20120;-74
2021/04/17 03:49:07;;;;;;;3.15;1.25;;;;;;;10.13;45.40;99638.81;5054313;28;20069;-74
2021/04/17 03:51:32;;;;;;;2.78;1.90;;;;;;;10.03;45.87;99628.31;5054518;28;20095;-74
2021/04/17 03:53:58;;;;;;;2.50;2.30;;;;;;;10.06;46.59;99633.13;5054172;28;20521;-73
2021/04/17 03:56:24;;;;;;;1.73;1.45;;;;;;;10.06;46.41;99637.88;5054183;28;20053;-74
2021/04/17 03:58:49;;;;;;;1.17;1.00;;;;;;;10.00;46.06;99628.25;5053856;28;20115;-74
2021/04/17 04:01:15;;;;;;;2.92;1.20;;;;;;;10.03;46.63;99630.31;5054044;28;20033;-73
2021/04/17 04:03:41;;;;;;;1.35;1.08;;;;;;;9.96;46.27;99629.03;5053752;28;20060;-73
2021/04/17 04:06:07;;;;;;;1.17;1.10;;;;;;;9.95;46.60;99626.59;5053918;28;20057;-74
2021/04/17 04:08:33;;;;;;;1.40;1.30;;;;;;;9.89;47.24;99628.88;5054202;28;20028;-73
2021/04/17 04:10:59;;;;;;;1.55;1.10;;;;;;;9.85;47.71;99624.44;5053972;28;20456;-74
2021/04/17 04:13:24;;;;;;;3.90;1.20;;;;;;;9.92;47.75;99628.16;5053274;28;20017;-73
2021/04/17 04:15:50;;;;;;;2.00;1.00;;;;;;;9.94;46.89;99614.69;5053813;28;20032;-73
2021/04/17 04:18:16;;;;;;;1.65;1.00;;;;;;;10.07;46.91;99622.84;5053600;28;20471;-73
2021/04/17 04:20:42;;;;;;;1.10;0.98;;;;;;;10.06;46.74;99623.97;5054391;28;20091;-74
2021/04/17 04:23:07;;;;;;;1.30;1.20;;;;;;;9.95;47.63;99618.25;5055324;28;20025;-73
2021/04/17 04:25:34;;;;;;;3.60;1.60;;;;;;;10.00;47.58;99611.59;5052955;28;20080;-73
2021/04/17 04:27:59;;;;;;;1.40;1.10;;;;;;;10.08;47.54;99618.88;5054682;28;20135;-73
2021/04/17 04:30:25;;;;;;;1.55;1.00;;;;;;;10.05;47.97;99616.81;5055063;28;20044;-73
2021/04/17 04:32:51;;;;;;;2.38;1.40;;;;;;;10.02;47.12;99609.25;5053738;28;20421;-74
2021/04/17 04:35:17;;;;;;;2.85;1.33;;;;;;;10.09;47.84;99598.22;5053116;28;20048;-73
2021/04/17 04:37:42;;;;;;;2.40;1.00;;;;;;;10.08;47.49;99599.41;5052392;28;20104;-73
2021/04/17 04:40:09;;;;;;;2.97;1.90;;;;;;;10.15;47.41;99607.84;5053050;28;20075;-73
2021/04/17 04:42:35;;;;;;;5.55;2.10;;;;;;;10.12;47.79;99608.59;5053055;28;20029;-73
2021/04/17 04:45:03;;;;;;;4.50;1.83;;;;;;;9.94;47.83;99586.88;5053169;28;20040;-74
2021/04/17 04:47:29;;;;;;;1.50;1.35;;;;;;;10.18;47.21;99621.81;5052833;28;20487;-74
2021/04/17 04:49:55;;;;;;;1.67;1.30;;;;;;;10.17;47.14;99630.50;5053182;28;20036;-73
2021/04/17 04:52:20;;;;;;;1.13;1.13;;;;;;;10.15;46.83;99621.75;5052889;28;20533;-74
2021/04/17 04:54:46;;;;;;;1.52;1.00;;;;;;;10.19;47.02;99625.41;5053112;28;20032;-73
2021/04/17 04:57:11;;;;;;;1.40;1.30;;;;;;;10.26;46.50;99625.53;5052803;28;20440;-74
2021/04/17 04:59:40;;;;;;;0.95;0.95;;;;;;;10.08;46.81;99586.31;5054024;28;20033;-74
2021/04/17 05:02:06;;;;;;;1.50;1.17;;;;;;;10.27;47.06;99627.13;5052715;28;20044;-74
2021/04/17 05:04:31;;;;;;;2.60;1.02;;;;;;;10.39;46.97;99635.28;5052626;28;20037;-74
2021/04/17 05:06:57;;;;;;;1.90;1.27;;;;;;;10.51;46.26;99641.78;5052527;28;20021;-73
2021/04/17 05:09:23;;;;;;;1.52;0.80;;;;;;;10.56;46.23;99655.38;5052923;28;20167;-74
2021/04/17 05:11:48;;;;;;;1.23;0.95;;;;;;;10.58;46.22;99647.44;5052800;28;20025;-73
2021/04/17 05:14:14;;;;;;;3.92;1.05;;;;;;;10.68;44.84;99671.84;5052598;28;20040;-74
2021/04/17 05:16:39;;;;;;;1.20;1.15;;;;;;;10.70;44.59;99650.00;5052970;28;20033;-73
2021/04/17 05:19:05;;;;;;;3.55;1.20;;;;;;;10.77;44.61;99644.53;5052772;28;20095;-73
2021/04/17 05:21:30;;;;;;;2.88;1.20;;;;;;;10.85;44.75;99651.00;5052483;28;20029;-73
2021/04/17 05:23:56;;;;;;;0.88;0.88;;;;;;;11.02;44.41;99659.59;5052263;28;20121;-73
2021/04/17 05:26:22;;;;;;;3.28;1.15;;;;;;;11.04;43.91;99659.19;5052642;28;20071;-73
2021/04/17 05:28:48;;;;;;;2.42;1.40;;;;;;;11.15;44.67;99654.56;5052713;28;20116;-73
2021/04/17 05:31:13;;;;;;;3.72;1.70;;;;;;;11.20;44.15;99650.66;5053071;28;20543;-74
2021/04/17 05:33:39;;;;;;;14.40;8.07;;;;;;;11.27;44.29;99647.94;5056174;28;20040;-74
2021/04/17 05:36:05;;;;;;;12.63;8.50;;;;;;;11.30;43.67;99649.16;5056967;28;20025;-74
2021/04/17 05:38:31;;;;;;;14.55;10.13;;;;;;;11.25;44.02;99639.16;5055819;28;20047;-74
2021/04/17 05:40:56;;;;;;;1.75;1.55;;;;;;;11.18;44.32;99637.09;5052841;28;20526;-73
2021/04/17 05:43:22;;;;;;;2.72;2.42;;;;;;;11.23;44.07;99639.53;5052261;28;20052;-74
2021/04/17 05:45:48;;;;;;;1.30;1.20;;;;;;;11.17;43.96;99643.03;5052170;28;20025;-73
2021/04/17 05:48:13;;;;;;;2.58;1.48;;;;;;;11.03;43.71;99654.81;5053654;28;20033;-73
2021/04/17 05:50:39;;;;;;;2.10;1.17;;;;;;;10.90;43.85;99675.72;5056810;28;20025;-73
2021/04/17 05:53:04;;;;;;;2.25;1.33;;;;;;;10.81;43.40;99659.28;5056857;28;20410;-73
2021/04/17 05:55:30;;;;;;;1.17;1.08;;;;;;;10.88;43.43;99667.75;5056128;28;20388;-74
2021/04/17 05:57:55;;;;;;;0.88;0.88;;;;;;;10.95;42.75;99665.03;5056402;28;20033;-73
2021/04/17 06:00:21;;;;;;;1.20;1.10;;;;;;;10.92;42.76;99656.63;5056172;28;20380;-73
2021/04/17 06:02:47;;;;;;;5.03;1.10;;;;;;;10.88;42.53;99651.03;5056303;28;20086;-74
2021/04/17 06:05:13;;;;;;;2.63;1.00;;;;;;;10.87;42.60;99648.66;5056430;28;20360;-73
2021/04/17 06:07:38;;;;;;;2.97;1.40;;;;;;;10.91;42.32;99644.72;5057295;28;20108;-73
2021/04/17 06:10:06;;;;;;;4.72;1.85;;;;;;;10.92;42.42;99656.63;5056526;28;20035;-73
2021/04/17 06:12:34;;;;;;;2.92;2.08;;;;;;;11.02;42.56;99650.41;5057376;28;20091;-73
2021/04/17 06:15:00;;;;;;;1.85;1.20;;;;;;;11.13;42.58;99656.09;5057076;28;20049;-73
2021/04/17 06:17:25;;;;;;;2.67;2.47;;;;;;;11.19;41.92;99644.28;5056014;28;20438;-73
2021/04/17 06:19:51;;;;;;;2.42;1.23;;;;;;;11.22;42.21;99637.13;5056840;28;20504;-73
2021/04/17 06:22:16;;;;;;;1.35;1.25;;;;;;;11.24;42.36;99640.34;5055714;28;20043;-73
2021/04/17 06:24:42;;;;;;;5.05;2.85;;;;;;;11.37;42.86;99638.09;5055343;28;20060;-73
2021/04/17 06:27:07;;;;;;;5.07;2.90;;;;;;;11.23;43.11;99630.38;5055483;28;20068;-73
2021/04/17 06:29:33;;;;;;;6.65;3.55;;;;;;;11.40;42.92;99632.56;5055789;28;20119;-73
2021/04/17 06:31:58;;;;;;;2.35;2.15;;;;;;;11.44;42.95;99621.44;5055475;28;20033;-73
2021/04/17 06:34:25;;;;;;;4.38;1.85;;;;;;;11.53;42.38;99617.19;5055440;28;20079;-73
2021/04/17 06:36:50;;;;;;;1.77;1.30;;;;;;;11.63;42.95;99615.69;5056347;28;20461;-73
2021/04/17 06:39:16;;;;;;;1.80;1.50;;;;;;;11.75;42.40;99609.03;5056140;28;20064;-73
2021/04/17 06:41:45;;;;;;;1.83;1.70;;;;;;;12.11;42.27;99615.72;5055310;28;20112;-73
2021/04/17 06:44:15;;;;;;;2.55;1.55;;;;;;;12.33;41.90;99627.84;5057015;28;20037;-73
2021/04/17 06:46:42;;;;;;;1.77;1.48;;;;;;;12.30;41.95;99637.78;5056115;28;20025;-73
2021/04/17 06:49:08;;;;;;;2.88;1.95;;;;;;;12.37;42.40;99625.88;5055768;28;20051;-73
2021/04/17 06:51:45;;;;;;;2.35;1.85;;;;;;;12.48;42.11;99618.38;5055179;28;20143;-73
2021/04/17 06:54:14;;;;;;;2.22;1.40;;;;;;;12.62;41.66;99605.66;5038686;28;20389;-73
2021/04/17 06:56:41;;;;;;;1.60;1.13;;;;;;;12.65;41.79;99614.06;5056128;28;20029;-73
2021/04/17 06:59:10;;;;;;;1.88;1.63;;;;;;;12.73;41.09;99595.34;5055318;28;20036;-73
2021/04/17 07:01:41;;;;;;;3.75;1.50;;;;;;;12.92;40.63;99611.81;5054338;28;20032;-73
2021/04/17 07:04:06;;;;;;;2.20;1.45;;;;;;;13.22;40.33;99610.75;5056718;28;20060;-73
2021/04/17 07:06:33;;;;;;;3.78;2.13;;;;;;;13.32;40.45;99616.38;5055246;28;20469;-74
2021/04/17 07:08:58;;;;;;;2.67;1.80;;;;;;;13.51;39.32;99620.78;5038307;28;20053;-73
2021/04/17 07:11:24;;;;;;;1.58;1.40;;;;;;;13.71;39.06;99624.03;5054851;28;20028;-73
2021/04/17 07:14:13;;;;;;;3.03;1.40;;;;;;;13.79;38.81;99614.44;5054936;28;20033;-73
2021/04/17 07:17:01;;;;;;;1.55;1.35;;;;;;;13.72;37.85;99622.03;5056539;28;20021;-73
2021/04/17 07:19:50;;;;;;;1.60;1.48;;;;;;;13.74;37.74;99623.25;5055925;28;20029;-73
2021/04/17 07:22:18;;;;;;;4.85;1.35;;;;;;;13.61;37.63;99622.00;5055451;28;20119;-73
2021/04/17 07:24:44;;;;;;;3.72;1.98;;;;;;;13.84;36.99;99628.03;5054255;28;20484;-73
2021/04/17 07:27:31;;;;;;;3.17;2.10;;;;;;;13.74;36.57;99637.22;5038243;28;20028;-73
2021/04/17 07:29:59;;;;;;;4.10;2.22;;;;;;;13.58;36.58;99640.41;5054350;28;20559;-74
2021/04/17 07:32:25;;;;;;;3.58;3.20;;;;;;;13.55;36.25;99643.16;5056280;28;20021;-73
2021/04/17 07:35:14;;;;;;;3.50;1.55;;;;;;;13.51;35.90;99654.34;5054597;28;20044;-73
2021/04/17 07:37:42;;;;;;;3.60;2.50;;;;;;;13.37;35.76;99645.94;5055919;28;20053;-73
2021/04/17 07:40:19;;;;;;;3.65;2.63;;;;;;;13.30;34.87;99640.31;5055124;28;20491;-74
2021/04/17 07:42:51;;;;;;;3.83;2.67;;;;;;;13.31;34.66;99639.91;5054604;28;20033;-73
2021/04/17 07:45:39;;;;;;;4.60;2.78;;;;;;;13.21;34.57;99648.22;5057032;28;20028;-73
2021/04/17 07:48:19;;;;;;;3.42;2.03;;;;;;;13.21;34.36;99653.81;5045081;28;20535;-73
2021/04/17 07:50:46;;;;;;;5.63;4.00;;;;;;;13.23;36.04;99657.06;5054164;28;20028;-73
2021/04/17 07:53:34;;;;;;;3.25;1.75;;;;;;;12.81;36.97;99622.13;5054614;28;20052;-73
2021/04/17 07:56:24;;;;;;;2.22;2.03;;;;;;;13.30;37.16;99663.44;5053857;28;20043;-74
2021/04/17 07:58:52;;;;;;;3.38;1.83;;;;;;;13.28;36.43;99637.13;5053986;28;20025;-74
2021/04/17 08:01:20;;;;;;;4.38;2.50;;;;;;;13.58;35.04;99662.75;5055738;28;20380;-74
2021/04/17 08:03:47;;;;;;;11.90;9.07;;;;;;;13.62;33.87;99659.94;5056003;28;20106;-74
2021/04/17 08:06:16;;;;;;;3.28;2.60;;;;;;;13.47;34.59;99661.91;5055916;28;20474;-74
2021/04/17 08:08:43;;;;;;;11.80;3.88;;;;;;;13.46;34.05;99656.72;5055773;28;20037;-74
2021/04/17 08:11:09;;;;;;;6.30;4.05;;;;;;;13.55;33.62;99659.94;5053075;28;20032;-74
2021/04/17 08:13:39;;;;;;;10.68;8.20;;;;;;;13.29;32.96;99633.91;5053137;28;20025;-73
2021/04/17 08:16:08;;;;;;;4.22;3.83;;;;;;;13.29;34.16;99672.22;5053748;28;20033;-73
2021/04/17 08:18:35;;;;;;;4.88;2.00;;;;;;;13.05;33.48;99674.50;5055394;28;20028;-72
2021/04/17 08:21:01;;;;;;;4.65;2.15;;;;;;;12.98;34.82;99673.66;5054952;28;20035;-72
2021/04/17 08:23:28;;;;;;;5.80;2.80;;;;;;;13.04;35.22;99684.06;5053411;28;20017;-72
2021/04/17 08:25:55;;;;;;;3.35;2.75;;;;;;;13.06;34.57;99678.91;5052817;28;20404;-72
2021/04/17 08:28:22;;;;;;;3.03;1.80;;;;;;;13.01;34.14;99684.84;5053602;28;20093;-72
2021/04/17 08:30:49;;;;;;;3.83;3.30;;;;;;;13.06;34.38;99687.28;5054528;28;20110;-72
2021/04/17 08:33:18;;;;;;;4.15;3.63;;;;;;;13.13;34.55;99682.91;5053728;28;20028;-72
2021/04/17 08:35:44;;;;;;;4.90;3.30;;;;;;;13.18;34.63;99690.91;5054487;28;20116;-72
2021/04/17 08:38:14;;;;;;;4.47;2.28;;;;;;;13.14;34.04;99690.09;5053734;28;20438;-72
2021/04/17 08:40:41;;;;;;;10.77;4.20;;;;;;;13.10;34.12;99704.03;5053101;28;20031;-72
2021/04/17 08:43:09;;;;;;;5.30;4.10;;;;;;;13.01;34.36;99701.63;5053060;28;20029;-72
2021/04/17 08:45:35;;;;;;;7.18;4.25;;;;;;;13.04;34.99;99695.22;5053604;28;20040;-72
2021/04/17 08:48:03;;;;;;;5.65;4.40;;;;;;;13.01;35.14;99703.59;5054279;28;20025;-72
2021/04/17 08:50:36;;;;;;;6.22;3.53;;;;;;;13.02;34.18;99708.78;5053644;28;20037;-72
2021/04/17 08:53:16;;;;;;;8.50;4.20;;;;;;;13.06;34.50;99712.41;5054284;28;20027;-72
2021/04/17 08:55:47;;;;;;;5.22;4.30;;;;;;;12.86;35.93;99705.50;5054457;28;20029;-72
2021/04/17 08:58:19;;;;;;;5.15;3.13;;;;;;;12.90;35.84;99711.94;5053418;28;20057;-72
2021/04/17 09:00:51;;;;;;;5.55;3.22;;;;;;;13.03;35.64;99707.59;5053040;28;20029;-72
2021/04/17 09:03:41;;;;;;;5.85;3.13;;;;;;;12.97;34.92;99711.97;5053322;28;20029;-72
2021/04/17 09:06:17;;;;;;;2.83;2.10;;;;;;;13.09;34.19;99708.81;5053124;28;20471;-72
2021/04/17 09:08:43;;;;;;;3.35;1.80;;;;;;;13.33;33.81;99701.00;5053638;28;20154;-72
2021/04/17 09:11:37;;;;;;;2.78;2.33;;;;;;;13.66;33.46;99696.31;5052615;28;20127;-72
2021/04/17 09:14:23;;;;;;;5.10;1.67;;;;;;;13.86;32.30;99695.56;5052594;28;20133;-72
2021/04/17 09:16:48;;;;;;;4.57;2.08;;;;;;;14.00;32.51;99699.56;5052459;28;20025;-72
2021/04/17 09:19:45;;;;;;;3.42;1.83;;;;;;;14.31;32.82;99698.78;5053041;28;20405;-73
2021/04/17 09:22:26;;;;;;;2.50;2.08;;;;;;;14.15;32.99;99707.56;5052586;28;20086;-73
2021/04/17 09:24:53;;;;;;;3.28;2.97;;;;;;;14.05;33.07;99697.16;5052519;28;20539;-72
2021/04/17 09:27:25;;;;;;;8.13;7.30;;;;;;;14.33;32.69;99709.59;5052383;28;20040;-72
2021/04/17 09:30:04;;;;;;;5.57;4.80;;;;;;;14.36;32.56;99711.56;5052921;28;20029;-72
2021/04/17 09:32:42;;;;;;;3.58;2.55;;;;;;;14.24;32.94;99714.78;5052952;28;20039;-71
2021/04/17 09:35:16;;;;;;;2.35;2.00;;;;;;;14.26;33.02;99715.97;5053870;28;20061;-72
2021/04/17 09:38:00;;;;;;;3.10;2.00;;;;;;;14.04;33.40;99725.53;5052768;28;20605;-72
2021/04/17 09:40:51;;;;;;;4.05;2.60;;;;;;;14.30;33.25;99719.56;5052834;28;20029;-72
2021/04/17 09:43:25;;;;;;;3.80;2.10;;;;;;;14.33;32.51;99723.59;5042735;28;20055;-72
2021/04/17 09:45:51;;;;;;;2.30;1.70;;;;;;;14.25;33.01;99719.16;5052990;28;20464;-72
2021/04/17 09:48:21;;;;;;;4.72;2.67;;;;;;;14.35;33.40;99710.78;5052549;28;20102;-72
2021/04/17 09:50:47;;;;;;;2.80;2.45;;;;;;;14.60;33.74;99719.22;5053463;28;20065;-74
2021/04/17 09:53:18;;;;;;;2.08;1.92;;;;;;;14.90;33.72;99723.53;5052265;28;20090;-72
2021/04/17 09:56:02;;;;;;;2.97;2.15;;;;;;;15.06;31.73;99712.69;5055183;28;20036;-73
2021/04/17 09:58:34;;;;;;;3.53;1.88;;;;;;;15.26;31.50;99720.66;5053486;28;20075;-72
2021/04/17 10:01:08;;;;;;;4.60;1.98;;;;;;;14.99;31.03;99701.53;5053727;28;20460;-72
2021/04/17 10:03:36;;;;;;;2.50;2.00;;;;;;;15.26;31.15;99713.03;5052077;28;20036;-72
2021/04/17 10:06:03;;;;;;;4.32;3.47;;;;;;;15.71;31.17;99707.66;5052558;28;20071;-72
2021/04/17 10:08:34;;;;;;;2.33;2.13;;;;;;;15.81;30.77;99709.59;5052399;28;20032;-72
2021/04/17 10:11:02;;;;;;;2.08;1.83;;;;;;;15.79;31.29;99705.63;5052521;28;20491;-72
2021/04/17 10:13:42;;;;;;;5.68;2.13;;;;;;;15.83;31.67;99707.19;5052543;28;20136;-72
2021/04/17 10:16:09;;;;;;;4.30;2.00;;;;;;;15.42;32.71;99704.16;5051840;28;20107;-72
2021/04/17 10:18:36;;;;;;;2.63;2.25;;;;;;;15.33;33.26;99706.59;5052181;28;20055;-72
2021/04/17 10:21:03;;;;;;;3.30;2.65;;;;;;;15.65;32.98;99696.06;5052231;28;20025;-72
2021/04/17 10:23:29;;;;;;;2.70;2.28;;;;;;;15.95;32.84;99695.50;5052063;28;20028;-72
2021/04/17 10:26:09;;;;;;;2.97;2.00;;;;;;;15.61;32.81;99702.91;5051660;28;20094;-72
2021/04/17 10:28:37;;;;;;;2.20;2.00;;;;;;;15.18;32.87;99714.28;5053696;28;20472;-72
2021/04/17 10:31:20;;;;;;;2.38;1.70;;;;;;;14.63;35.95;99715.59;5052400;28;20063;-72
2021/04/17 10:33:48;;;;;;;2.05;1.42;;;;;;;14.93;34.45;99714.34;5051904;28;20543;-72
2021/04/17 10:36:22;;;;;;;1.90;1.73;;;;;;;15.57;32.99;99696.50;5055207;28;20021;-72
2021/04/17 10:38:49;;;;;;;2.97;2.45;;;;;;;15.42;34.11;99698.56;5057166;28;20098;-72
2021/04/17 10:41:29;;;;;;;3.63;2.47;;;;;;;15.28;33.92;99664.97;5056547;28;20486;-72
2021/04/17 10:44:15;;;;;;;2.40;2.20;;;;;;;15.54;33.87;99700.91;5056365;28;20082;-72
2021/04/17 10:46:42;;;;;;;3.17;1.95;;;;;;;14.99;33.94;99700.72;5056498;28;20024;-72
2021/04/17 10:49:07;;;;;;;4.80;1.90;;;;;;;14.90;35.42;99698.34;5055173;28;20039;-72
2021/04/17 10:51:41;;;;;;;3.13;2.13;;;;;;;15.14;34.13;99689.06;5055712;28;20040;-71
2021/04/17 10:54:07;;;;;;;3.15;2.30;;;;;;;15.00;34.79;99688.31;5056422;28;20033;-72
2021/04/17 10:56:34;;;;;;;3.20;2.70;;;;;;;14.94;35.21;99652.31;5055513;28;20035;-71
2021/04/17 10:59:03;;;;;;;8.77;3.38;;;;;;;14.77;35.28;99678.38;5055992;28;20031;-71
2021/04/17 11:01:34;;;;;;;8.35;5.95;;;;;;;14.59;35.19;99692.38;5054973;28;20132;-71
2021/04/17 11:04:01;;;;;;;13.15;10.00;;;;;;;14.80;35.35;99685.16;5055444;28;20036;-71
2021/04/17 11:06:35;;;;;;;8.00;7.20;;;;;;;15.31;34.66;99679.00;5054799;28;20048;-71
2021/04/17 11:09:10;;;;;;;7.10;6.15;;;;;;;15.36;34.53;99700.19;5055463;28;20033;-72
2021/04/17 11:11:37;;;;;;;8.43;7.63;;;;;;;15.04;34.71;99687.09;5054778;28;20025;-71
2021/04/17 11:14:05;;;;;;;8.38;3.92;;;;;;;14.87;35.23;99685.16;5054912;28;20033;-71
2021/04/17 11:16:49;;;;;;;31.20;25.23;;;;;;;15.15;35.08;99685.06;5054769;28;20033;-72
2021/04/17 11:19:30;;;;;;;5.97;2.45;;;;;;;14.37;35.96;99696.38;5056180;28;20027;-71
2021/04/17 11:22:16;;;;;;;3.17;2.38;;;;;;;14.37;36.02;99685.97;5055048;28;20052;-73
2021/04/17 11:25:08;;;;;;;3.55;2.05;;;;;;;14.75;35.56;99693.97;5055500;28;20135;-72
2021/04/17 11:27:35;;;;;;;1.67;1.58;;;;;;;14.73;35.44;99680.38;5051020;28;20375;-72
2021/04/17 11:30:04;;;;;;;3.35;2.47;;;;;;;14.63;36.05;99693.19;5054541;28;20403;-72
2021/04/17 11:32:30;;;;;;;2.97;1.90;;;;;;;14.26;36.05;99679.59;5056132;28;20044;-72
2021/04/17 11:34:56;;;;;;;5.40;4.88;;;;;;;14.48;35.78;99697.19;5054097;28;20464;-72
2021/04/17 11:37:23;;;;;;;3.40;2.70;;;;;;;14.64;35.16;99686.38;5054745;28;20059;-72
2021/04/17 11:39:49;;;;;;;2.45;2.28;;;;;;;14.54;35.37;99690.03;5054424;28;20025;-72
2021/04/17 11:42:17;;;;;;;3.17;2.88;;;;;;;14.86;35.76;99686.34;5054083;28;20503;-72
2021/04/17 11:44:46;;;;;;;6.15;4.57;;;;;;;15.12;35.40;99691.47;5054347;28;20388;-72